YXCU weather

Cunningham Gap Helipad
Cunningham Highway, Queensland, Australia

Public forecast

Using degrees Celsius for public forecast. Weather courtesy of forecast.io.

METAR (pilot weather report)

Closest report is RAAF Base Amberley, 28.2 nm (52.3 km) NNE. Retrieved 2019/04/19 13:30 UTC (25 minutes ago):

YAMB 191330Z AUTO 18005KT 8000 -SHRA SCT015 SCT022 BKN028 20/19 Q1022

TAF (pilot weather forecast)

Forecast is more than 12 hours old.

Closest forecast is RAAF Base Amberley, 28.2 nm (52.3 km) NNE. Retrieved 2019/04/18 18:00 UTC (20 hours ago):

TAF YAMB 181653Z 1818/1912 16005KT 9999 FEW025 SCT035 FM182300 14012KT 9999 -SHRA SCT035 BKN050 INTER 1900/1912 VRB15G25KT 5000 -SHRA BKN020 BKN035